sensor_id;sensor_type;location;lat;lon;timestamp;temperature;humidity
13976;DHT22;7062;49.792;9.946;2022-09-02T00:00:49;17.20;99.90
13976;DHT22;7062;49.792;9.946;2022-09-02T00:03:16;17.20;99.90
13976;DHT22;7062;49.792;9.946;2022-09-02T00:05:41;17.20;99.90
13976;DHT22;7062;49.792;9.946;2022-09-02T00:08:08;17.20;99.90
13976;DHT22;7062;49.792;9.946;2022-09-02T00:10:38;17.20;99.90
13976;DHT22;7062;49.792;9.946;2022-09-02T00:13:05;17.30;99.90
13976;DHT22;7062;49.792;9.946;2022-09-02T00:15:31;17.20;99.90
13976;DHT22;7062;49.792;9.946;2022-09-02T00:17:59;17.20;99.90
13976;DHT22;7062;49.792;9.946;2022-09-02T00:20:25;17.20;99.90
13976;DHT22;7062;49.792;9.946;2022-09-02T00:22:51;17.00;99.90
13976;DHT22;7062;49.792;9.946;2022-09-02T00:25:16;17.00;99.90
13976;DHT22;7062;49.792;9.946;2022-09-02T00:27:42;16.90;99.90
13976;DHT22;7062;49.792;9.946;2022-09-02T00:30:08;16.90;99.90
13976;DHT22;7062;49.792;9.946;2022-09-02T00:32:34;16.80;99.90
13976;DHT22;7062;49.792;9.946;2022-09-02T00:34:59;16.70;99.90
13976;DHT22;7062;49.792;9.946;2022-09-02T00:37:26;16.80;99.90
13976;DHT22;7062;49.792;9.946;2022-09-02T00:39:53;16.90;99.90
13976;DHT22;7062;49.792;9.946;2022-09-02T00:42:23;16.90;99.90
13976;DHT22;7062;49.792;9.946;2022-09-02T00:44:49;16.80;99.90
13976;DHT22;7062;49.792;9.946;2022-09-02T00:47:15;16.80;99.90
13976;DHT22;7062;49.792;9.946;2022-09-02T00:49:43;16.70;99.90
13976;DHT22;7062;49.792;9.946;2022-09-02T00:52:31;16.70;99.90
13976;DHT22;7062;49.792;9.946;2022-09-02T00:57:43;16.60;99.90
13976;DHT22;7062;49.792;9.946;2022-09-02T01:00:19;16.70;99.90
13976;DHT22;7062;49.792;9.946;2022-09-02T01:02:49;16.70;99.90
13976;DHT22;7062;49.792;9.946;2022-09-02T01:05:17;16.90;99.90
13976;DHT22;7062;49.792;9.946;2022-09-02T01:07:43;16.70;99.90
13976;DHT22;7062;49.792;9.946;2022-09-02T01:10:15;16.80;99.90
13976;DHT22;7062;49.792;9.946;2022-09-02T01:12:42;16.70;99.90
13976;DHT22;7062;49.792;9.946;2022-09-02T01:15:09;16.70;99.90
13976;DHT22;7062;49.792;9.946;2022-09-02T01:17:39;16.70;99.90
13976;DHT22;7062;49.792;9.946;2022-09-02T01:20:09;16.60;99.90
13976;DHT22;7062;49.792;9.946;2022-09-02T01:22:37;16.60;99.90
13976;DHT22;7062;49.792;9.946;2022-09-02T01:25:13;16.50;99.90
13976;DHT22;7062;49.792;9.946;2022-09-02T01:27:39;16.50;99.90
13976;DHT22;7062;49.792;9.946;2022-09-02T01:30:09;16.50;99.90
13976;DHT22;7062;49.792;9.946;2022-09-02T01:32:35;16.30;99.90
13976;DHT22;7062;49.792;9.946;2022-09-02T01:35:01;16.30;99.90
13976;DHT22;7062;49.792;9.946;2022-09-02T01:37:27;16.30;99.90
13976;DHT22;7062;49.792;9.946;2022-09-02T01:39:52;16.30;99.90
13976;DHT22;7062;49.792;9.946;2022-09-02T01:42:19;16.40;99.90
13976;DHT22;7062;49.792;9.946;2022-09-02T01:44:45;16.50;99.90
13976;DHT22;7062;49.792;9.946;2022-09-02T01:47:12;16.50;99.90
13976;DHT22;7062;49.792;9.946;2022-09-02T01:49:38;16.40;99.90
13976;DHT22;7062;49.792;9.946;2022-09-02T01:52:04;16.40;99.90
13976;DHT22;7062;49.792;9.946;2022-09-02T01:54:30;16.30;99.90
13976;DHT22;7062;49.792;9.946;2022-09-02T01:56:55;16.30;99.90
13976;DHT22;7062;49.792;9.946;2022-09-02T01:59:21;16.20;99.90
13976;DHT22;7062;49.792;9.946;2022-09-02T02:01:47;16.10;99.90
13976;DHT22;7062;49.792;9.946;2022-09-02T02:04:13;16.00;99.90
13976;DHT22;7062;49.792;9.946;2022-09-02T02:06:43;15.90;99.90
13976;DHT22;7062;49.792;9.946;2022-09-02T02:09:10;15.90;99.90
13976;DHT22;7062;49.792;9.946;2022-09-02T02:11:37;15.80;99.90
13976;DHT22;7062;49.792;9.946;2022-09-02T02:14:03;15.80;99.90
13976;DHT22;7062;49.792;9.946;2022-09-02T02:16:29;15.80;99.90
13976;DHT22;7062;49.792;9.946;2022-09-02T02:18:55;15.70;99.90
13976;DHT22;7062;49.792;9.946;2022-09-02T02:21:20;15.50;99.90
13976;DHT22;7062;49.792;9.946;2022-09-02T02:23:46;15.40;99.90
13976;DHT22;7062;49.792;9.946;2022-09-02T02:26:12;15.40;99.90
13976;DHT22;7062;49.792;9.946;2022-09-02T02:28:37;15.30;99.90
13976;DHT22;7062;49.792;9.946;2022-09-02T02:31:04;15.30;99.90
13976;DHT22;7062;49.792;9.946;2022-09-02T02:33:30;15.20;99.90
13976;DHT22;7062;49.792;9.946;2022-09-02T02:35:56;15.20;99.90
13976;DHT22;7062;49.792;9.946;2022-09-02T02:38:22;15.30;99.90
13976;DHT22;7062;49.792;9.946;2022-09-02T02:40:48;15.20;99.90
13976;DHT22;7062;49.792;9.946;2022-09-02T02:43:14;15.30;99.90
13976;DHT22;7062;49.792;9.946;2022-09-02T02:45:40;15.30;99.90
13976;DHT22;7062;49.792;9.946;2022-09-02T02:48:05;15.30;99.90
13976;DHT22;7062;49.792;9.946;2022-09-02T02:50:31;15.40;99.90
13976;DHT22;7062;49.792;9.946;2022-09-02T02:52:57;15.30;99.90
13976;DHT22;7062;49.792;9.946;2022-09-02T02:55:24;15.10;99.90
13976;DHT22;7062;49.792;9.946;2022-09-02T02:57:50;15.20;99.90
13976;DHT22;7062;49.792;9.946;2022-09-02T03:00:23;15.20;99.90
13976;DHT22;7062;49.792;9.946;2022-09-02T03:02:53;15.20;99.90
13976;DHT22;7062;49.792;9.946;2022-09-02T03:05:19;15.20;99.90
13976;DHT22;7062;49.792;9.946;2022-09-02T03:07:44;15.20;99.90
13976;DHT22;7062;49.792;9.946;2022-09-02T03:10:12;15.10;99.90
13976;DHT22;7062;49.792;9.946;2022-09-02T03:12:38;15.10;99.90
13976;DHT22;7062;49.792;9.946;2022-09-02T03:15:05;15.10;99.90
13976;DHT22;7062;49.792;9.946;2022-09-02T03:17:31;15.20;99.90
13976;DHT22;7062;49.792;9.946;2022-09-02T03:19:57;15.20;99.90
13976;DHT22;7062;49.792;9.946;2022-09-02T03:22:25;15.20;99.90
13976;DHT22;7062;49.792;9.946;2022-09-02T03:24:50;15.20;99.90
13976;DHT22;7062;49.792;9.946;2022-09-02T03:27:16;15.10;99.90
13976;DHT22;7062;49.792;9.946;2022-09-02T03:29:42;15.00;99.90
13976;DHT22;7062;49.792;9.946;2022-09-02T03:32:09;15.00;99.90
13976;DHT22;7062;49.792;9.946;2022-09-02T03:34:35;15.00;99.90
13976;DHT22;7062;49.792;9.946;2022-09-02T03:37:00;15.00;99.90
13976;DHT22;7062;49.792;9.946;2022-09-02T03:39:26;15.00;99.90
13976;DHT22;7062;49.792;9.946;2022-09-02T03:41:52;15.00;99.90
13976;DHT22;7062;49.792;9.946;2022-09-02T03:44:18;14.90;99.90
13976;DHT22;7062;49.792;9.946;2022-09-02T03:46:44;14.90;99.90
13976;DHT22;7062;49.792;9.946;2022-09-02T03:49:10;14.80;99.90
13976;DHT22;7062;49.792;9.946;2022-09-02T03:51:40;14.70;99.90
13976;DHT22;7062;49.792;9.946;2022-09-02T03:54:05;14.70;99.90
13976;DHT22;7062;49.792;9.946;2022-09-02T03:56:32;14.70;99.90
13976;DHT22;7062;49.792;9.946;2022-09-02T03:58:58;14.80;99.90
13976;DHT22;7062;49.792;9.946;2022-09-02T04:01:25;14.80;99.90
13976;DHT22;7062;49.792;9.946;2022-09-02T04:03:51;14.80;99.90
13976;DHT22;7062;49.792;9.946;2022-09-02T04:06:19;14.80;99.90
13976;DHT22;7062;49.792;9.946;2022-09-02T04:08:45;14.70;99.90
13976;DHT22;7062;49.792;9.946;2022-09-02T04:11:14;14.70;99.90
13976;DHT22;7062;49.792;9.946;2022-09-02T04:13:42;14.50;99.90
13976;DHT22;7062;49.792;9.946;2022-09-02T04:16:11;14.50;99.90
13976;DHT22;7062;49.792;9.946;2022-09-02T04:18:38;14.40;99.90
13976;DHT22;7062;49.792;9.946;2022-09-02T04:21:04;14.40;99.90
13976;DHT22;7062;49.792;9.946;2022-09-02T04:23:30;14.40;99.90
13976;DHT22;7062;49.792;9.946;2022-09-02T04:25:56;14.20;99.90
13976;DHT22;7062;49.792;9.946;2022-09-02T04:28:22;14.10;99.90
13976;DHT22;7062;49.792;9.946;2022-09-02T04:30:49;13.90;99.90
13976;DHT22;7062;49.792;9.946;2022-09-02T04:33:15;13.80;99.90
13976;DHT22;7062;49.792;9.946;2022-09-02T04:35:42;13.90;99.90
13976;DHT22;7062;49.792;9.946;2022-09-02T04:38:09;13.90;99.90
13976;DHT22;7062;49.792;9.946;2022-09-02T04:40:38;13.90;99.90
13976;DHT22;7062;49.792;9.946;2022-09-02T04:43:04;13.90;99.90
13976;DHT22;7062;49.792;9.946;2022-09-02T04:45:29;13.90;99.90
13976;DHT22;7062;49.792;9.946;2022-09-02T04:47:55;13.90;99.90
13976;DHT22;7062;49.792;9.946;2022-09-02T04:50:20;13.90;99.90
13976;DHT22;7062;49.792;9.946;2022-09-02T04:52:46;13.90;99.90
13976;DHT22;7062;49.792;9.946;2022-09-02T04:55:12;13.90;99.90
13976;DHT22;7062;49.792;9.946;2022-09-02T04:57:37;14.00;99.90
13976;DHT22;7062;49.792;9.946;2022-09-02T05:00:05;14.10;99.90
13976;DHT22;7062;49.792;9.946;2022-09-02T05:02:31;14.00;99.90
13976;DHT22;7062;49.792;9.946;2022-09-02T05:04:57;14.00;99.90
13976;DHT22;7062;49.792;9.946;2022-09-02T05:07:23;14.00;99.90
13976;DHT22;7062;49.792;9.946;2022-09-02T05:09:48;13.90;99.90
13976;DHT22;7062;49.792;9.946;2022-09-02T05:12:14;14.00;99.90
13976;DHT22;7062;49.792;9.946;2022-09-02T05:14:40;14.10;99.90
13976;DHT22;7062;49.792;9.946;2022-09-02T05:17:06;14.10;99.90
13976;DHT22;7062;49.792;9.946;2022-09-02T05:19:32;14.20;99.90
13976;DHT22;7062;49.792;9.946;2022-09-02T05:21:58;14.20;99.90
13976;DHT22;7062;49.792;9.946;2022-09-02T05:24:26;14.40;99.90
13976;DHT22;7062;49.792;9.946;2022-09-02T05:26:53;14.50;99.90
13976;DHT22;7062;49.792;9.946;2022-09-02T05:29:21;14.40;99.90
13976;DHT22;7062;49.792;9.946;2022-09-02T05:31:48;14.50;99.90
13976;DHT22;7062;49.792;9.946;2022-09-02T05:34:15;14.50;99.90
13976;DHT22;7062;49.792;9.946;2022-09-02T05:36:41;14.70;99.90
13976;DHT22;7062;49.792;9.946;2022-09-02T05:39:07;14.90;99.90
13976;DHT22;7062;49.792;9.946;2022-09-02T05:41:34;15.00;99.90
13976;DHT22;7062;49.792;9.946;2022-09-02T05:44:01;15.20;99.90
13976;DHT22;7062;49.792;9.946;2022-09-02T05:46:27;15.20;99.90
13976;DHT22;7062;49.792;9.946;2022-09-02T05:48:54;15.10;99.90
13976;DHT22;7062;49.792;9.946;2022-09-02T05:54:31;15.20;99.90
13976;DHT22;7062;49.792;9.946;2022-09-02T05:57:03;15.40;99.90
13976;DHT22;7062;49.792;9.946;2022-09-02T05:59:30;15.40;99.90
13976;DHT22;7062;49.792;9.946;2022-09-02T06:01:57;15.50;99.90
13976;DHT22;7062;49.792;9.946;2022-09-02T06:04:23;15.50;99.90
13976;DHT22;7062;49.792;9.946;2022-09-02T06:06:50;15.60;99.90
13976;DHT22;7062;49.792;9.946;2022-09-02T06:09:19;15.50;99.90
13976;DHT22;7062;49.792;9.946;2022-09-02T06:11:45;15.60;99.90
13976;DHT22;7062;49.792;9.946;2022-09-02T06:14:15;15.70;99.90
13976;DHT22;7062;49.792;9.946;2022-09-02T06:16:42;15.70;99.90
13976;DHT22;7062;49.792;9.946;2022-09-02T06:19:08;15.80;99.90
13976;DHT22;7062;49.792;9.946;2022-09-02T06:21:36;15.70;99.90
13976;DHT22;7062;49.792;9.946;2022-09-02T06:24:04;15.90;99.90
13976;DHT22;7062;49.792;9.946;2022-09-02T06:26:31;16.00;99.90
13976;DHT22;7062;49.792;9.946;2022-09-02T06:28:57;16.00;99.90
13976;DHT22;7062;49.792;9.946;2022-09-02T06:31:23;16.20;99.90
13976;DHT22;7062;49.792;9.946;2022-09-02T06:33:52;16.20;99.90
13976;DHT22;7062;49.792;9.946;2022-09-02T06:36:19;16.20;99.90
13976;DHT22;7062;49.792;9.946;2022-09-02T06:38:50;16.30;99.90
13976;DHT22;7062;49.792;9.946;2022-09-02T06:41:22;16.30;99.90
13976;DHT22;7062;49.792;9.946;2022-09-02T06:43:49;16.40;99.90
13976;DHT22;7062;49.792;9.946;2022-09-02T06:46:27;16.50;99.90
13976;DHT22;7062;49.792;9.946;2022-09-02T06:48:53;16.60;99.90
13976;DHT22;7062;49.792;9.946;2022-09-02T06:51:30;16.60;99.90
13976;DHT22;7062;49.792;9.946;2022-09-02T06:53:56;16.70;99.90
13976;DHT22;7062;49.792;9.946;2022-09-02T06:56:22;16.70;99.90
13976;DHT22;7062;49.792;9.946;2022-09-02T06:58:48;16.80;99.90
13976;DHT22;7062;49.792;9.946;2022-09-02T07:01:20;16.90;99.90
13976;DHT22;7062;49.792;9.946;2022-09-02T07:03:46;17.00;99.90
13976;DHT22;7062;49.792;9.946;2022-09-02T07:06:40;17.00;99.90
13976;DHT22;7062;49.792;9.946;2022-09-02T07:09:08;17.20;99.90
13976;DHT22;7062;49.792;9.946;2022-09-02T07:11:35;17.30;99.90
13976;DHT22;7062;49.792;9.946;2022-09-02T07:14:02;17.40;99.90
13976;DHT22;7062;49.792;9.946;2022-09-02T07:16:30;17.40;99.90
13976;DHT22;7062;49.792;9.946;2022-09-02T07:18:56;17.50;99.90
13976;DHT22;7062;49.792;9.946;2022-09-02T07:21:22;17.60;99.90
13976;DHT22;7062;49.792;9.946;2022-09-02T07:23:48;17.70;99.90
13976;DHT22;7062;49.792;9.946;2022-09-02T07:26:15;17.70;99.90
13976;DHT22;7062;49.792;9.946;2022-09-02T07:28:42;17.80;99.90
13976;DHT22;7062;49.792;9.946;2022-09-02T07:31:13;17.80;99.90
13976;DHT22;7062;49.792;9.946;2022-09-02T07:33:39;17.90;99.90
13976;DHT22;7062;49.792;9.946;2022-09-02T07:36:05;17.90;99.90
13976;DHT22;7062;49.792;9.946;2022-09-02T07:38:32;18.10;99.90
13976;DHT22;7062;49.792;9.946;2022-09-02T07:40:58;18.20;99.90
13976;DHT22;7062;49.792;9.946;2022-09-02T07:43:25;18.30;99.90
13976;DHT22;7062;49.792;9.946;2022-09-02T07:45:52;18.50;99.90
13976;DHT22;7062;49.792;9.946;2022-09-02T07:48:24;18.60;99.90
13976;DHT22;7062;49.792;9.946;2022-09-02T07:50:50;18.80;99.90
13976;DHT22;7062;49.792;9.946;2022-09-02T07:53:17;18.90;99.90
13976;DHT22;7062;49.792;9.946;2022-09-02T07:55:43;19.00;99.90
13976;DHT22;7062;49.792;9.946;2022-09-02T07:58:10;19.10;99.90
13976;DHT22;7062;49.792;9.946;2022-09-02T08:00:36;19.20;99.90
13976;DHT22;7062;49.792;9.946;2022-09-02T08:03:03;19.30;99.90
13976;DHT22;7062;49.792;9.946;2022-09-02T08:05:29;19.50;99.90
13976;DHT22;7062;49.792;9.946;2022-09-02T08:07:55;19.60;99.90
13976;DHT22;7062;49.792;9.946;2022-09-02T08:10:21;19.80;99.90
13976;DHT22;7062;49.792;9.946;2022-09-02T08:12:50;19.90;99.90
13976;DHT22;7062;49.792;9.946;2022-09-02T08:15:16;20.00;99.90
13976;DHT22;7062;49.792;9.946;2022-09-02T08:17:45;20.10;99.90
13976;DHT22;7062;49.792;9.946;2022-09-02T08:20:12;20.20;99.90
13976;DHT22;7062;49.792;9.946;2022-09-02T08:22:39;20.30;99.90
13976;DHT22;7062;49.792;9.946;2022-09-02T08:25:06;20.40;99.80
13976;DHT22;7062;49.792;9.946;2022-09-02T08:27:32;20.50;98.50
13976;DHT22;7062;49.792;9.946;2022-09-02T08:29:58;20.50;98.60
13976;DHT22;7062;49.792;9.946;2022-09-02T08:32:26;20.50;98.90
13976;DHT22;7062;49.792;9.946;2022-09-02T08:34:51;20.50;98.70
13976;DHT22;7062;49.792;9.946;2022-09-02T08:37:17;20.50;98.90
13976;DHT22;7062;49.792;9.946;2022-09-02T08:39:46;20.70;98.60
13976;DHT22;7062;49.792;9.946;2022-09-02T08:44:49;21.00;97.40
13976;DHT22;7062;49.792;9.946;2022-09-02T08:47:22;21.00;96.80
13976;DHT22;7062;49.792;9.946;2022-09-02T08:49:56;21.10;97.10
13976;DHT22;7062;49.792;9.946;2022-09-02T08:52:44;21.30;95.80
13976;DHT22;7062;49.792;9.946;2022-09-02T08:55:16;21.30;95.90
13976;DHT22;7062;49.792;9.946;2022-09-02T08:57:44;21.30;96.20
13976;DHT22;7062;49.792;9.946;2022-09-02T09:00:10;21.60;95.90
13976;DHT22;7062;49.792;9.946;2022-09-02T09:08:17;22.70;93.20
13976;DHT22;7062;49.792;9.946;2022-09-02T09:16:32;24.90;88.20
13976;DHT22;7062;49.792;9.946;2022-09-02T09:21:38;27.30;81.00
13976;DHT22;7062;49.792;9.946;2022-09-02T09:24:28;28.60;77.50
13976;DHT22;7062;49.792;9.946;2022-09-02T09:26:55;28.90;74.70
13976;DHT22;7062;49.792;9.946;2022-09-02T09:29:21;29.80;71.40
13976;DHT22;7062;49.792;9.946;2022-09-02T09:31:55;30.30;71.30
13976;DHT22;7062;49.792;9.946;2022-09-02T09:34:21;31.70;67.50
13976;DHT22;7062;49.792;9.946;2022-09-02T09:36:49;31.50;65.90
13976;DHT22;7062;49.792;9.946;2022-09-02T09:39:26;30.70;66.90
13976;DHT22;7062;49.792;9.946;2022-09-02T09:41:56;31.30;65.40
13976;DHT22;7062;49.792;9.946;2022-09-02T09:44:45;32.30;64.60
13976;DHT22;7062;49.792;9.946;2022-09-02T09:47:19;32.70;62.90
13976;DHT22;7062;49.792;9.946;2022-09-02T09:49:47;32.50;64.20
13976;DHT22;7062;49.792;9.946;2022-09-02T09:52:22;33.50;60.70
13976;DHT22;7062;49.792;9.946;2022-09-02T09:57:36;33.90;58.40
13976;DHT22;7062;49.792;9.946;2022-09-02T10:00:29;33.90;59.00
13976;DHT22;7062;49.792;9.946;2022-09-02T10:03:01;33.60;57.50
13976;DHT22;7062;49.792;9.946;2022-09-02T10:05:38;33.70;55.70
13976;DHT22;7062;49.792;9.946;2022-09-02T10:11:19;34.10;54.00
13976;DHT22;7062;49.792;9.946;2022-09-02T10:13:45;34.60;53.70
13976;DHT22;7062;49.792;9.946;2022-09-02T10:16:39;35.70;50.30
13976;DHT22;7062;49.792;9.946;2022-09-02T10:30:17;38.10;47.70
13976;DHT22;7062;49.792;9.946;2022-09-02T10:33:21;36.60;46.70
13976;DHT22;7062;49.792;9.946;2022-09-02T10:35:59;36.60;47.00
13976;DHT22;7062;49.792;9.946;2022-09-02T10:46:39;33.60;50.90
13976;DHT22;7062;49.792;9.946;2022-09-02T10:52:09;29.30;54.90
13976;DHT22;7062;49.792;9.946;2022-09-02T10:57:31;30.20;55.50
13976;DHT22;7062;49.792;9.946;2022-09-02T11:00:09;33.60;52.10
13976;DHT22;7062;49.792;9.946;2022-09-02T11:02:41;36.30;49.10
13976;DHT22;7062;49.792;9.946;2022-09-02T11:05:13;36.80;48.00
13976;DHT22;7062;49.792;9.946;2022-09-02T11:08:00;37.50;47.70
13976;DHT22;7062;49.792;9.946;2022-09-02T11:10:37;36.60;47.10
13976;DHT22;7062;49.792;9.946;2022-09-02T11:16:02;36.60;46.40
13976;DHT22;7062;49.792;9.946;2022-09-02T11:21:26;33.80;49.30
13976;DHT22;7062;49.792;9.946;2022-09-02T11:26:35;34.30;49.70
13976;DHT22;7062;49.792;9.946;2022-09-02T11:29:19;35.60;48.20
13976;DHT22;7062;49.792;9.946;2022-09-02T11:32:24;34.60;49.10
13976;DHT22;7062;49.792;9.946;2022-09-02T11:34:55;35.20;48.40
13976;DHT22;7062;49.792;9.946;2022-09-02T11:38:38;35.70;47.80
13976;DHT22;7062;49.792;9.946;2022-09-02T11:40:42;35.90;47.50
13976;DHT22;7062;49.792;9.946;2022-09-02T11:54:08;37.90;44.40
13976;DHT22;7062;49.792;9.946;2022-09-02T11:56:38;37.00;45.60
13976;DHT22;7062;49.792;9.946;2022-09-02T11:59:07;38.50;45.30
13976;DHT22;7062;49.792;9.946;2022-09-02T12:01:38;39.60;43.90
13976;DHT22;7062;49.792;9.946;2022-09-02T12:04:24;39.80;43.40
13976;DHT22;7062;49.792;9.946;2022-09-02T12:15:13;41.10;41.90
13976;DHT22;7062;49.792;9.946;2022-09-02T12:23:04;39.10;42.40
13976;DHT22;7062;49.792;9.946;2022-09-02T12:33:42;41.60;40.20
13976;DHT22;7062;49.792;9.946;2022-09-02T12:36:42;42.40;39.50
13976;DHT22;7062;49.792;9.946;2022-09-02T12:50:24;42.90;38.40
13976;DHT22;7062;49.792;9.946;2022-09-02T12:55:38;41.00;39.00
13976;DHT22;7062;49.792;9.946;2022-09-02T12:58:11;41.40;39.10
13976;DHT22;7062;49.792;9.946;2022-09-02T13:31:25;41.40;38.40
13976;DHT22;7062;49.792;9.946;2022-09-02T13:34:03;41.70;37.30
13976;DHT22;7062;49.792;9.946;2022-09-02T13:36:34;38.20;39.60
13976;DHT22;7062;49.792;9.946;2022-09-02T13:41:42;37.90;39.80
13976;DHT22;7062;49.792;9.946;2022-09-02T13:44:40;38.00;40.80
13976;DHT22;7062;49.792;9.946;2022-09-02T13:47:15;37.80;40.30
13976;DHT22;7062;49.792;9.946;2022-09-02T13:49:45;38.60;39.70
13976;DHT22;7062;49.792;9.946;2022-09-02T13:52:17;38.70;39.50
13976;DHT22;7062;49.792;9.946;2022-09-02T13:54:46;38.90;39.90
13976;DHT22;7062;49.792;9.946;2022-09-02T13:57:17;40.00;39.20
13976;DHT22;7062;49.792;9.946;2022-09-02T13:59:47;41.70;38.10
13976;DHT22;7062;49.792;9.946;2022-09-02T14:02:24;42.80;37.10
13976;DHT22;7062;49.792;9.946;2022-09-02T14:07:51;42.20;37.10
13976;DHT22;7062;49.792;9.946;2022-09-02T14:10:20;39.20;38.90
13976;DHT22;7062;49.792;9.946;2022-09-02T14:12:47;39.50;39.40
13976;DHT22;7062;49.792;9.946;2022-09-02T14:15:15;40.30;38.30
13976;DHT22;7062;49.792;9.946;2022-09-02T14:17:41;39.70;38.90
13976;DHT22;7062;49.792;9.946;2022-09-02T14:20:20;40.60;38.30
13976;DHT22;7062;49.792;9.946;2022-09-02T14:22:57;40.70;37.60
13976;DHT22;7062;49.792;9.946;2022-09-02T14:25:24;39.70;38.30
13976;DHT22;7062;49.792;9.946;2022-09-02T14:27:52;40.00;39.00
13976;DHT22;7062;49.792;9.946;2022-09-02T14:30:37;41.30;39.00
13976;DHT22;7062;49.792;9.946;2022-09-02T14:36:04;43.10;37.20
13976;DHT22;7062;49.792;9.946;2022-09-02T14:43:43;40.40;38.40
13976;DHT22;7062;49.792;9.946;2022-09-02T14:46:16;40.80;38.50
13976;DHT22;7062;49.792;9.946;2022-09-02T14:48:52;39.30;39.50
13976;DHT22;7062;49.792;9.946;2022-09-02T14:51:18;39.70;39.70
13976;DHT22;7062;49.792;9.946;2022-09-02T14:53:44;40.80;38.90
13976;DHT22;7062;49.792;9.946;2022-09-02T14:56:10;41.30;38.90
13976;DHT22;7062;49.792;9.946;2022-09-02T14:58:35;41.80;38.00
13976;DHT22;7062;49.792;9.946;2022-09-02T15:01:01;42.30;37.90
13976;DHT22;7062;49.792;9.946;2022-09-02T15:03:29;41.00;38.30
13976;DHT22;7062;49.792;9.946;2022-09-02T15:05:55;40.70;37.70
13976;DHT22;7062;49.792;9.946;2022-09-02T15:08:21;40.30;38.90
13976;DHT22;7062;49.792;9.946;2022-09-02T15:10:47;40.80;38.40
13976;DHT22;7062;49.792;9.946;2022-09-02T15:13:25;40.50;38.90
13976;DHT22;7062;49.792;9.946;2022-09-02T15:15:52;40.40;38.70
13976;DHT22;7062;49.792;9.946;2022-09-02T15:18:20;39.10;39.00
13976;DHT22;7062;49.792;9.946;2022-09-02T15:20:45;38.50;39.50
13976;DHT22;7062;49.792;9.946;2022-09-02T15:23:11;38.10;40.20
13976;DHT22;7062;49.792;9.946;2022-09-02T15:25:37;37.80;40.30
13976;DHT22;7062;49.792;9.946;2022-09-02T15:28:02;37.40;41.30
13976;DHT22;7062;49.792;9.946;2022-09-02T15:30:28;38.70;40.70
13976;DHT22;7062;49.792;9.946;2022-09-02T15:32:55;39.80;40.00
13976;DHT22;7062;49.792;9.946;2022-09-02T15:35:20;40.20;39.60
13976;DHT22;7062;49.792;9.946;2022-09-02T15:37:49;40.50;39.30
13976;DHT22;7062;49.792;9.946;2022-09-02T15:40:15;40.30;39.50
13976;DHT22;7062;49.792;9.946;2022-09-02T15:42:41;39.60;40.00
13976;DHT22;7062;49.792;9.946;2022-09-02T15:45:07;39.50;39.50
13976;DHT22;7062;49.792;9.946;2022-09-02T15:47:36;39.50;39.90
13976;DHT22;7062;49.792;9.946;2022-09-02T15:50:05;39.50;40.00
13976;DHT22;7062;49.792;9.946;2022-09-02T15:52:33;39.10;39.90
13976;DHT22;7062;49.792;9.946;2022-09-02T15:54:59;38.30;40.70
13976;DHT22;7062;49.792;9.946;2022-09-02T15:57:24;38.20;40.40
13976;DHT22;7062;49.792;9.946;2022-09-02T15:59:50;37.00;41.10
13976;DHT22;7062;49.792;9.946;2022-09-02T16:02:16;36.00;41.60
13976;DHT22;7062;49.792;9.946;2022-09-02T16:04:41;35.90;41.70
13976;DHT22;7062;49.792;9.946;2022-09-02T16:07:07;36.00;42.00
13976;DHT22;7062;49.792;9.946;2022-09-02T16:09:33;36.10;41.70
13976;DHT22;7062;49.792;9.946;2022-09-02T16:11:59;35.00;42.70
13976;DHT22;7062;49.792;9.946;2022-09-02T16:14:24;34.60;43.70
13976;DHT22;7062;49.792;9.946;2022-09-02T16:16:51;34.10;44.10
13976;DHT22;7062;49.792;9.946;2022-09-02T16:19:19;34.50;43.90
13976;DHT22;7062;49.792;9.946;2022-09-02T16:21:46;33.90;44.30
13976;DHT22;7062;49.792;9.946;2022-09-02T16:24:12;32.60;45.80
13976;DHT22;7062;49.792;9.946;2022-09-02T16:26:39;32.90;45.70
13976;DHT22;7062;49.792;9.946;2022-09-02T16:29:10;33.70;45.00
13976;DHT22;7062;49.792;9.946;2022-09-02T16:31:39;33.60;45.80
13976;DHT22;7062;49.792;9.946;2022-09-02T16:34:09;33.50;45.00
13976;DHT22;7062;49.792;9.946;2022-09-02T16:36:40;33.70;45.40
13976;DHT22;7062;49.792;9.946;2022-09-02T16:39:07;33.90;45.00
13976;DHT22;7062;49.792;9.946;2022-09-02T16:41:40;34.10;44.60
13976;DHT22;7062;49.792;9.946;2022-09-02T16:44:13;32.50;45.90
13976;DHT22;7062;49.792;9.946;2022-09-02T16:46:41;31.90;47.00
13976;DHT22;7062;49.792;9.946;2022-09-02T16:49:08;31.90;46.90
13976;DHT22;7062;49.792;9.946;2022-09-02T16:51:34;31.90;47.00
13976;DHT22;7062;49.792;9.946;2022-09-02T16:54:02;31.70;47.50
13976;DHT22;7062;49.792;9.946;2022-09-02T16:56:29;31.40;47.70
13976;DHT22;7062;49.792;9.946;2022-09-02T16:58:58;30.50;48.70
13976;DHT22;7062;49.792;9.946;2022-09-02T17:01:24;30.30;48.80
13976;DHT22;7062;49.792;9.946;2022-09-02T17:03:50;29.80;49.90
13976;DHT22;7062;49.792;9.946;2022-09-02T17:06:16;29.00;50.70
13976;DHT22;7062;49.792;9.946;2022-09-02T17:08:42;28.70;51.00
13976;DHT22;7062;49.792;9.946;2022-09-02T17:11:20;28.30;51.60
13976;DHT22;7062;49.792;9.946;2022-09-02T17:13:50;28.20;52.40
13976;DHT22;7062;49.792;9.946;2022-09-02T17:16:17;27.30;52.70
13976;DHT22;7062;49.792;9.946;2022-09-02T17:18:43;27.10;53.20
13976;DHT22;7062;49.792;9.946;2022-09-02T17:23:56;26.80;53.90
13976;DHT22;7062;49.792;9.946;2022-09-02T17:26:25;26.50;54.30
13976;DHT22;7062;49.792;9.946;2022-09-02T17:28:55;26.20;54.60
13976;DHT22;7062;49.792;9.946;2022-09-02T17:31:27;26.10;55.10
13976;DHT22;7062;49.792;9.946;2022-09-02T17:33:55;25.80;55.30
13976;DHT22;7062;49.792;9.946;2022-09-02T17:36:22;25.70;55.90
13976;DHT22;7062;49.792;9.946;2022-09-02T17:38:53;25.60;56.10
13976;DHT22;7062;49.792;9.946;2022-09-02T17:41:18;25.50;56.20
13976;DHT22;7062;49.792;9.946;2022-09-02T17:44:03;25.30;56.40
13976;DHT22;7062;49.792;9.946;2022-09-02T17:46:29;25.10;56.90
13976;DHT22;7062;49.792;9.946;2022-09-02T17:48:55;25.00;57.30
13976;DHT22;7062;49.792;9.946;2022-09-02T17:51:22;24.90;57.50
13976;DHT22;7062;49.792;9.946;2022-09-02T17:53:48;24.80;57.70
13976;DHT22;7062;49.792;9.946;2022-09-02T17:59:34;24.70;58.00
13976;DHT22;7062;49.792;9.946;2022-09-02T18:07:49;24.40;58.60
13976;DHT22;7062;49.792;9.946;2022-09-02T18:10:18;24.30;58.80
13976;DHT22;7062;49.792;9.946;2022-09-02T18:12:44;24.20;58.90
13976;DHT22;7062;49.792;9.946;2022-09-02T18:15:16;24.20;59.20
13976;DHT22;7062;49.792;9.946;2022-09-02T18:17:44;24.20;59.40
13976;DHT22;7062;49.792;9.946;2022-09-02T18:23:28;24.30;59.40
13976;DHT22;7062;49.792;9.946;2022-09-02T18:26:18;24.20;59.30
13976;DHT22;7062;49.792;9.946;2022-09-02T18:34:39;24.00;60.00
13976;DHT22;7062;49.792;9.946;2022-09-02T18:37:54;24.00;60.00
13976;DHT22;7062;49.792;9.946;2022-09-02T18:43:33;23.70;60.50
13976;DHT22;7062;49.792;9.946;2022-09-02T18:46:02;23.60;61.00
13976;DHT22;7062;49.792;9.946;2022-09-02T18:48:32;23.40;61.40
13976;DHT22;7062;49.792;9.946;2022-09-02T18:51:12;23.30;62.10
13976;DHT22;7062;49.792;9.946;2022-09-02T18:53:52;23.30;61.80